createdAt,value
2019-03-06T00:02:21.557Z,2.80
2019-03-06T00:04:48.848Z,2.80
2019-03-06T00:07:17.108Z,2.72
2019-03-06T00:09:44.403Z,3.52
2019-03-06T00:12:11.451Z,3.25
2019-03-06T00:14:38.660Z,2.60
2019-03-06T00:17:06.084Z,2.65
2019-03-06T00:19:33.116Z,3.15
2019-03-06T00:22:00.160Z,3.17
2019-03-06T00:24:27.532Z,3.08
2019-03-06T00:26:54.869Z,3.47
2019-03-06T00:29:21.969Z,3.25
2019-03-06T00:31:49.012Z,3.47
2019-03-06T00:34:16.294Z,3.50
2019-03-06T00:36:43.672Z,3.50
2019-03-06T00:39:11.048Z,4.47
2019-03-06T00:41:38.267Z,4.00
2019-03-06T00:44:05.300Z,4.05
2019-03-06T00:46:32.348Z,4.03
2019-03-06T00:48:59.752Z,3.87
2019-03-06T00:51:27.058Z,3.05
2019-03-06T00:53:54.441Z,3.52
2019-03-06T00:56:21.968Z,4.05
2019-03-06T00:58:49.071Z,3.15
2019-03-06T01:01:16.119Z,3.33
2019-03-06T01:03:43.475Z,3.50
2019-03-06T01:06:10.810Z,3.50
2019-03-06T01:08:39.156Z,2.90
2019-03-06T01:11:07.421Z,3.70
2019-03-06T01:13:34.449Z,2.95
2019-03-06T01:16:01.743Z,3.50
2019-03-06T01:18:28.778Z,3.67
2019-03-06T01:20:55.830Z,3.42
2019-03-06T01:23:23.096Z,3.45
2019-03-06T01:25:50.127Z,2.90
2019-03-06T01:28:17.168Z,3.12
2019-03-06T01:30:44.197Z,2.90
2019-03-06T01:33:11.497Z,2.42
2019-03-06T01:35:38.778Z,3.30
2019-03-06T01:38:06.261Z,2.90
2019-03-06T01:40:34.260Z,3.30
2019-03-06T01:43:01.552Z,3.17
2019-03-06T01:45:28.827Z,2.95
2019-03-06T01:47:55.871Z,3.10
2019-03-06T01:50:22.900Z,3.12
2019-03-06T01:52:50.207Z,3.35
2019-03-06T01:55:17.477Z,2.80
2019-03-06T01:57:44.764Z,3.20
2019-03-06T02:00:12.054Z,3.25
2019-03-06T02:02:39.428Z,3.25
2019-03-06T02:05:06.979Z,3.27
2019-03-06T02:07:34.267Z,3.60
2019-03-06T02:10:01.553Z,2.90
2019-03-06T02:12:29.271Z,3.17
2019-03-06T02:14:56.300Z,3.60
2019-03-06T02:17:23.604Z,3.47
2019-03-06T02:19:50.808Z,3.20
2019-03-06T02:22:18.108Z,3.17
2019-03-06T02:24:45.148Z,3.33
2019-03-06T02:27:12.441Z,3.30
2019-03-06T02:29:40.780Z,3.80
2019-03-06T02:32:08.140Z,3.58
2019-03-06T02:34:35.595Z,3.47
2019-03-06T02:37:02.949Z,3.52
2019-03-06T02:39:29.999Z,3.65
2019-03-06T02:41:57.371Z,3.50
2019-03-06T02:44:24.421Z,4.03
2019-03-06T02:46:51.449Z,4.17
2019-03-06T02:49:18.758Z,4.10
2019-03-06T02:51:46.065Z,3.92
2019-03-06T02:54:13.373Z,3.52
2019-03-06T02:56:40.407Z,3.72
2019-03-06T02:59:07.454Z,3.45
2019-03-06T03:01:34.762Z,3.98
2019-03-06T03:04:01.815Z,4.05
2019-03-06T03:06:29.168Z,3.90
2019-03-06T03:08:56.218Z,3.52
2019-03-06T03:11:23.571Z,3.60
2019-03-06T03:13:50.921Z,3.47
2019-03-06T03:16:18.274Z,3.40
2019-03-06T03:18:45.628Z,3.25
2019-03-06T03:21:12.665Z,3.37
2019-03-06T03:23:39.712Z,3.25
2019-03-06T03:26:07.018Z,3.80
2019-03-06T03:28:34.047Z,3.10
2019-03-06T03:31:01.404Z,2.95
2019-03-06T03:33:28.761Z,3.02
2019-03-06T03:35:56.062Z,3.22
2019-03-06T03:38:24.378Z,2.80
2019-03-06T03:40:51.731Z,2.98
2019-03-06T03:43:18.780Z,3.10
2019-03-06T03:45:46.136Z,2.83
2019-03-06T03:48:13.484Z,2.55
2019-03-06T03:50:40.851Z,2.90
2019-03-06T03:53:07.894Z,2.80
2019-03-06T03:55:34.942Z,2.85
2019-03-06T03:58:01.986Z,2.80
2019-03-06T04:00:30.472Z,2.87
2019-03-06T04:02:57.513Z,2.87
2019-03-06T04:05:24.558Z,3.30
2019-03-06T04:07:51.592Z,3.42
2019-03-06T04:10:18.638Z,3.22
2019-03-06T04:12:45.690Z,2.92
2019-03-06T04:15:12.737Z,3.47
2019-03-06T04:20:42.904Z,3.50
2019-03-06T04:23:09.954Z,3.45
2019-03-06T04:25:37.300Z,3.50
2019-03-06T04:28:04.593Z,3.67
2019-03-06T04:30:31.922Z,3.40
2019-03-06T04:32:58.960Z,3.42
2019-03-06T04:35:26.005Z,3.80
2019-03-06T04:37:53.038Z,4.05
2019-03-06T04:40:20.091Z,3.70
2019-03-06T04:42:47.126Z,3.87
2019-03-06T04:45:14.175Z,3.47
2019-03-06T04:47:41.227Z,3.55
2019-03-06T04:50:08.272Z,3.45
2019-03-06T04:52:35.322Z,3.45
2019-03-06T04:55:02.371Z,3.60
2019-03-06T04:57:29.403Z,3.60
2019-03-06T04:59:56.451Z,3.87
2019-03-06T05:02:23.485Z,3.60
2019-03-06T05:04:50.538Z,4.12
2019-03-06T05:07:17.596Z,3.90
2019-03-06T05:09:46.776Z,4.22
2019-03-06T05:12:14.691Z,4.33
2019-03-06T05:14:41.742Z,3.72
2019-03-06T05:17:08.782Z,4.35
2019-03-06T05:19:35.909Z,4.33
2019-03-06T05:22:03.223Z,4.00
2019-03-06T05:24:30.267Z,4.17
2019-03-06T05:26:57.318Z,3.67
2019-03-06T05:29:24.355Z,4.00
2019-03-06T05:31:51.686Z,3.40
2019-03-06T05:34:20.196Z,3.70
2019-03-06T05:36:47.420Z,4.15
2019-03-06T05:39:14.458Z,3.60
2019-03-06T05:41:41.824Z,3.85
2019-03-06T05:44:08.865Z,4.20
2019-03-06T05:46:35.918Z,3.80
2019-03-06T05:49:02.956Z,3.85
2019-03-06T05:51:31.192Z,3.60
2019-03-06T05:53:58.327Z,3.70
2019-03-06T05:56:25.376Z,3.30
2019-03-06T05:58:52.653Z,3.30
2019-03-06T06:01:19.706Z,2.95
2019-03-06T06:03:46.919Z,4.12
2019-03-06T06:06:14.271Z,3.17
2019-03-06T06:08:41.309Z,3.45
2019-03-06T06:11:08.359Z,3.30
2019-03-06T06:13:35.394Z,4.00
2019-03-06T06:16:02.752Z,4.10
2019-03-06T06:18:29.872Z,3.70
2019-03-06T06:20:56.909Z,3.58
2019-03-06T06:23:24.024Z,3.27
2019-03-06T06:25:51.056Z,3.00
2019-03-06T06:28:18.395Z,3.15
2019-03-06T06:30:45.769Z,2.83
2019-03-06T06:33:13.111Z,2.80
2019-03-06T06:35:40.472Z,3.10
2019-03-06T06:38:07.523Z,2.98
2019-03-06T06:40:35.873Z,2.77
2019-03-06T06:43:02.960Z,2.87
2019-03-06T06:45:30.272Z,3.00
2019-03-06T06:47:57.649Z,2.70
2019-03-06T06:50:24.849Z,2.20
2019-03-06T06:52:51.897Z,2.40
2019-03-06T06:55:18.939Z,2.22
2019-03-06T06:57:46.269Z,2.15
2019-03-06T07:00:13.480Z,2.50
2019-03-06T07:02:40.536Z,2.42
2019-03-06T07:05:07.908Z,2.20
2019-03-06T07:07:35.277Z,2.40
2019-03-06T07:10:02.321Z,2.62
2019-03-06T07:12:30.890Z,2.67
2019-03-06T07:14:58.246Z,2.50
2019-03-06T07:17:25.308Z,2.60
2019-03-06T07:19:53.326Z,2.40
2019-03-06T07:22:20.378Z,2.42
2019-03-06T07:24:47.504Z,2.27
2019-03-06T07:27:14.919Z,2.15
2019-03-06T07:29:41.952Z,2.47
2019-03-06T07:32:09.020Z,2.65
2019-03-06T07:34:37.129Z,1.80
2019-03-06T07:37:04.168Z,2.17
2019-03-06T07:39:32.216Z,2.45
2019-03-06T07:41:59.311Z,2.45
2019-03-06T07:44:30.166Z,2.20
2019-03-06T07:46:55.449Z,2.00
2019-03-06T07:49:22.505Z,2.17
2019-03-06T07:51:50.121Z,1.90
2019-03-06T07:54:17.193Z,2.05
2019-03-06T07:56:44.512Z,1.90
2019-03-06T07:59:11.574Z,2.20
2019-03-06T08:01:38.614Z,2.00
2019-03-06T08:04:05.669Z,2.90
2019-03-06T08:06:33.012Z,2.25
2019-03-06T08:09:00.074Z,2.50
2019-03-06T08:11:27.117Z,2.37
2019-03-06T08:13:54.162Z,2.22
2019-03-06T08:16:21.215Z,2.30
2019-03-06T08:18:48.451Z,2.05
2019-03-06T08:21:15.497Z,1.98
2019-03-06T08:23:42.556Z,2.30
2019-03-06T08:26:09.603Z,2.00
2019-03-06T08:28:36.650Z,2.10
2019-03-06T08:31:04.657Z,2.67
2019-03-06T08:33:31.716Z,2.02
2019-03-06T08:35:58.753Z,2.05
2019-03-06T08:38:25.807Z,2.40
2019-03-06T08:40:52.838Z,2.40
2019-03-06T08:43:19.894Z,2.12
2019-03-06T08:45:47.206Z,2.58
2019-03-06T08:48:14.258Z,2.02
2019-03-06T08:50:41.631Z,2.10
2019-03-06T08:53:08.888Z,1.70
2019-03-06T08:55:35.937Z,1.70
2019-03-06T08:58:03.271Z,1.92
2019-03-06T09:00:30.644Z,1.87
2019-03-06T09:02:57.749Z,1.60
2019-03-06T09:05:25.125Z,1.60
2019-03-06T09:07:52.242Z,1.27
2019-03-06T09:10:19.299Z,1.67
2019-03-06T09:12:46.740Z,1.42
2019-03-06T09:15:13.769Z,1.32
2019-03-06T09:17:40.801Z,1.40
2019-03-06T09:20:07.860Z,1.30
2019-03-06T09:22:34.899Z,1.27
2019-03-06T09:25:01.962Z,1.52
2019-03-06T09:27:29.584Z,1.20
2019-03-06T09:29:56.638Z,1.32
2019-03-06T09:32:23.987Z,1.00
2019-03-06T09:34:51.120Z,1.15
2019-03-06T09:37:19.236Z,1.40
2019-03-06T09:39:46.563Z,0.95
2019-03-06T09:42:13.607Z,1.10
2019-03-06T09:44:40.664Z,1.00
2019-03-06T09:47:08.675Z,1.22
2019-03-06T09:49:35.984Z,0.90
2019-03-06T09:52:03.033Z,1.00
2019-03-06T09:54:30.369Z,0.90
2019-03-06T09:56:57.395Z,1.27
2019-03-06T09:59:24.449Z,1.30
2019-03-06T10:01:51.489Z,0.90
2019-03-06T10:04:18.542Z,1.05
2019-03-06T10:06:45.939Z,0.90
2019-03-06T10:09:12.978Z,1.30
2019-03-06T10:11:40.103Z,0.82
2019-03-06T10:14:07.489Z,1.00
2019-03-06T10:16:34.847Z,1.10
2019-03-06T10:19:01.889Z,0.80
2019-03-06T10:21:28.942Z,0.60
2019-03-06T10:23:56.291Z,1.00
2019-03-06T10:26:23.840Z,0.98
2019-03-06T10:28:50.874Z,0.78
2019-03-06T10:31:18.305Z,0.60
2019-03-06T10:33:45.339Z,0.80
2019-03-06T10:36:12.988Z,0.70
2019-03-06T10:38:40.030Z,0.90
2019-03-06T10:41:07.374Z,0.62
2019-03-06T10:43:34.743Z,0.70
2019-03-06T10:46:01.795Z,0.85
2019-03-06T10:48:28.904Z,0.90
2019-03-06T10:50:55.954Z,0.75
2019-03-06T10:53:23.057Z,0.68
2019-03-06T10:55:50.113Z,0.70
2019-03-06T10:58:17.147Z,0.70
2019-03-06T11:00:44.203Z,0.80
2019-03-06T11:03:11.239Z,0.93
2019-03-06T11:05:38.295Z,0.70
2019-03-06T11:08:05.343Z,0.90
2019-03-06T11:10:32.377Z,0.50
2019-03-06T11:12:59.773Z,0.60
2019-03-06T11:15:26.817Z,0.82
2019-03-06T11:17:55.052Z,0.70
2019-03-06T11:20:22.465Z,1.00
2019-03-06T11:22:49.592Z,0.62
2019-03-06T11:25:17.022Z,0.70
2019-03-06T11:27:44.081Z,0.60
2019-03-06T11:30:11.625Z,0.70
2019-03-06T11:32:38.680Z,0.60
2019-03-06T11:35:06.233Z,0.53
2019-03-06T11:37:33.284Z,0.70
2019-03-06T11:40:00.335Z,0.80
2019-03-06T11:42:28.546Z,0.80
2019-03-06T11:44:55.579Z,0.75
2019-03-06T11:47:22.641Z,0.90
2019-03-06T11:49:49.679Z,0.65
2019-03-06T11:52:16.745Z,0.78
2019-03-06T11:54:43.761Z,0.70
2019-03-06T11:57:10.819Z,0.70
2019-03-06T11:59:38.122Z,0.45
2019-03-06T12:02:05.173Z,0.70
2019-03-06T12:04:32.835Z,0.62
2019-03-06T12:07:00.213Z,0.80
2019-03-06T12:09:27.248Z,0.82
2019-03-06T12:11:54.302Z,0.80
2019-03-06T12:14:21.662Z,0.70
2019-03-06T12:16:48.715Z,0.90
2019-03-06T12:19:15.754Z,0.68
2019-03-06T12:21:43.312Z,0.90
2019-03-06T12:24:10.593Z,0.80
2019-03-06T12:26:37.645Z,0.90
2019-03-06T12:29:04.677Z,1.00
2019-03-06T12:31:31.734Z,0.80
2019-03-06T12:33:58.779Z,0.90
2019-03-06T12:36:25.817Z,1.10
2019-03-06T12:38:53.120Z,0.70
2019-03-06T12:41:20.165Z,0.90
2019-03-06T12:43:47.228Z,0.70
2019-03-06T12:46:22.950Z,0.70
2019-03-06T12:48:43.278Z,0.82
2019-03-06T12:51:10.324Z,0.60
2019-03-06T12:53:37.379Z,0.90
2019-03-06T12:56:04.937Z,0.90
2019-03-06T12:58:31.993Z,0.85
2019-03-06T13:00:59.041Z,0.70
2019-03-06T13:03:26.094Z,1.00
2019-03-06T13:05:53.433Z,0.90
2019-03-06T13:08:20.491Z,0.90
2019-03-06T13:10:47.534Z,0.80
2019-03-06T13:13:14.985Z,1.20
2019-03-06T13:15:42.342Z,0.80
2019-03-06T13:18:09.477Z,1.00
2019-03-06T13:20:36.514Z,0.90
2019-03-06T13:23:04.098Z,0.90
2019-03-06T13:25:31.480Z,0.90
2019-03-06T13:27:58.811Z,0.90
2019-03-06T13:30:26.172Z,1.10
2019-03-06T13:32:53.229Z,1.17
2019-03-06T13:35:20.275Z,1.07
2019-03-06T13:37:47.619Z,1.52
2019-03-06T13:40:18.386Z,0.85
2019-03-06T13:42:43.417Z,1.00
2019-03-06T13:45:10.476Z,1.10
2019-03-06T13:47:37.788Z,1.02
2019-03-06T13:50:05.112Z,1.12
2019-03-06T13:52:32.669Z,1.10
2019-03-06T13:55:00.031Z,1.10
2019-03-06T13:57:27.403Z,0.80
2019-03-06T13:59:54.732Z,0.90
2019-03-06T14:02:21.778Z,1.00
2019-03-06T14:04:49.444Z,1.10
2019-03-06T14:07:16.490Z,0.90
2019-03-06T14:09:43.544Z,1.07
2019-03-06T14:12:10.894Z,1.25
2019-03-06T14:14:38.251Z,1.00
2019-03-06T14:17:05.295Z,1.30
2019-03-06T14:19:32.348Z,0.95
2019-03-06T14:21:59.664Z,1.00
2019-03-06T14:24:27.059Z,1.10
2019-03-06T14:26:54.102Z,1.10
2019-03-06T14:29:21.483Z,1.30
2019-03-06T14:31:48.813Z,1.10
2019-03-06T14:34:15.869Z,1.07
2019-03-06T14:36:42.910Z,1.12
2019-03-06T14:39:10.147Z,1.22
2019-03-06T14:41:37.744Z,1.25
2019-03-06T14:44:04.802Z,1.12
2019-03-06T14:46:31.845Z,1.40
2019-03-06T14:48:59.981Z,1.25
2019-03-06T14:51:27.018Z,1.20
2019-03-06T14:53:54.071Z,1.20
2019-03-06T14:56:21.113Z,1.30
2019-03-06T14:58:48.169Z,1.35
2019-03-06T15:01:15.212Z,1.15
2019-03-06T15:03:42.279Z,1.20
2019-03-06T15:06:09.317Z,1.47
2019-03-06T15:08:36.359Z,1.70
2019-03-06T15:11:03.544Z,1.45
2019-03-06T15:13:30.884Z,1.37
2019-03-06T15:15:57.938Z,1.40
2019-03-06T15:18:25.286Z,1.30
2019-03-06T15:20:52.644Z,1.40
2019-03-06T15:23:19.687Z,1.40
2019-03-06T15:25:46.746Z,1.40
2019-03-06T15:28:13.788Z,1.30
2019-03-06T15:30:41.142Z,1.40
2019-03-06T15:33:08.495Z,1.20
2019-03-06T15:35:35.546Z,1.22
2019-03-06T15:38:02.588Z,1.40
2019-03-06T15:40:29.644Z,1.40
2019-03-06T15:42:56.688Z,1.37
2019-03-06T15:45:23.823Z,1.20
2019-03-06T15:47:51.189Z,1.45
2019-03-06T15:50:18.241Z,1.70
2019-03-06T15:52:45.277Z,1.47
2019-03-06T15:55:12.334Z,1.27
2019-03-06T15:57:39.377Z,1.20
2019-03-06T16:00:06.430Z,1.45
2019-03-06T16:02:33.465Z,1.60
2019-03-06T16:05:00.701Z,1.40
2019-03-06T16:07:27.807Z,1.42
2019-03-06T16:09:55.349Z,1.37
2019-03-06T16:12:22.457Z,1.50
2019-03-06T16:14:49.512Z,1.30
2019-03-06T16:17:16.559Z,1.47
2019-03-06T16:19:43.944Z,1.30
2019-03-06T16:22:11.160Z,1.40
2019-03-06T16:24:38.217Z,1.40
2019-03-06T16:27:05.249Z,1.20
2019-03-06T16:29:32.670Z,1.52
2019-03-06T16:32:00.004Z,1.70
2019-03-06T16:34:27.054Z,1.20
2019-03-06T16:36:54.096Z,1.92
2019-03-06T16:39:21.431Z,1.70
2019-03-06T16:41:48.474Z,1.55
2019-03-06T16:44:15.511Z,1.62
2019-03-06T16:46:42.568Z,1.47
2019-03-06T16:49:09.609Z,1.70
2019-03-06T16:51:37.001Z,1.52
2019-03-06T16:54:04.042Z,1.30
2019-03-06T16:56:31.278Z,1.75
2019-03-06T16:58:59.282Z,1.70
2019-03-06T17:01:26.343Z,1.80
2019-03-06T17:03:53.385Z,1.50
2019-03-06T17:06:20.519Z,1.37
2019-03-06T17:08:47.552Z,1.72
2019-03-06T17:11:14.607Z,1.70
2019-03-06T17:13:41.967Z,1.57
2019-03-06T17:16:10.447Z,1.70
2019-03-06T17:18:37.481Z,1.50
2019-03-06T17:21:04.529Z,1.70
2019-03-06T17:23:31.627Z,2.02
2019-03-06T17:25:58.677Z,1.60
2019-03-06T17:28:25.711Z,1.72
2019-03-06T17:30:52.756Z,1.32
2019-03-06T17:33:25.760Z,1.67
2019-03-06T17:35:53.099Z,1.70
2019-03-06T17:38:20.139Z,1.90
2019-03-06T17:43:38.801Z,2.12
2019-03-06T17:46:05.850Z,2.10
2019-03-06T17:48:32.890Z,2.00
2019-03-06T17:51:00.861Z,1.85
2019-03-06T17:53:29.031Z,2.22
2019-03-06T17:55:56.084Z,2.02
2019-03-06T17:58:23.127Z,1.80
2019-03-06T18:00:50.509Z,2.08
2019-03-06T18:05:47.932Z,1.95
2019-03-06T18:08:17.280Z,1.90
2019-03-06T18:13:26.842Z,2.12
2019-03-06T18:21:06.077Z,2.00
2019-03-06T18:23:34.376Z,2.02
2019-03-06T18:26:05.999Z,1.90
2019-03-06T18:31:23.757Z,1.90
2019-03-06T18:33:59.333Z,2.08
2019-03-06T18:36:26.594Z,2.17
2019-03-06T18:41:52.335Z,2.42
2019-03-06T18:44:19.489Z,2.00
2019-03-06T18:46:50.554Z,2.27
2019-03-06T18:49:19.729Z,2.00
2019-03-06T18:51:47.924Z,2.00
2019-03-06T18:54:17.096Z,2.10
2019-03-06T19:04:28.209Z,1.80
2019-03-06T19:09:30.430Z,2.20
2019-03-06T19:12:02.274Z,2.40
2019-03-06T19:14:42.626Z,2.20
2019-03-06T19:22:17.375Z,2.47
2019-03-06T19:24:44.561Z,2.12
2019-03-06T19:27:15.511Z,2.15
2019-03-06T19:29:44.967Z,2.22
2019-03-06T19:34:46.433Z,2.60
2019-03-06T19:37:14.655Z,2.60
2019-03-06T19:39:44.862Z,2.27
2019-03-06T19:42:11.911Z,2.08
2019-03-06T19:44:41.352Z,2.33
2019-03-06T19:47:13.470Z,2.30
2019-03-06T19:49:42.242Z,2.25
2019-03-06T19:52:15.535Z,2.40
2019-03-06T19:54:43.396Z,2.47
2019-03-06T19:59:51.341Z,2.22
2019-03-06T20:02:18.902Z,2.30
2019-03-06T20:04:48.124Z,2.12
2019-03-06T20:07:15.588Z,2.92
2019-03-06T20:09:44.866Z,2.60
2019-03-06T20:12:13.061Z,2.33
2019-03-06T20:14:50.092Z,2.25
2019-03-06T20:17:17.146Z,3.05
2019-03-06T20:19:49.229Z,2.60
2019-03-06T20:22:20.298Z,2.50
2019-03-06T20:24:47.338Z,2.10
2019-03-06T20:27:14.594Z,2.52
2019-03-06T20:29:42.620Z,2.33
2019-03-06T20:32:12.432Z,2.70
2019-03-06T20:34:41.864Z,2.12
2019-03-06T20:37:09.138Z,2.35
2019-03-06T20:42:25.026Z,2.58
2019-03-06T20:44:52.480Z,2.47
2019-03-06T20:47:19.533Z,2.27
2019-03-06T20:55:08.347Z,2.10
2019-03-06T21:00:08.357Z,2.35
2019-03-06T21:02:36.373Z,2.47
2019-03-06T21:05:03.902Z,2.20
2019-03-06T21:10:22.604Z,2.15
2019-03-06T21:12:51.020Z,2.30
2019-03-06T21:15:18.062Z,2.37
2019-03-06T21:17:50.278Z,2.72
2019-03-06T21:20:28.116Z,2.67
2019-03-06T21:22:55.168Z,2.40
2019-03-06T21:28:23.131Z,2.17
2019-03-06T21:30:50.352Z,2.15
2019-03-06T21:33:23.052Z,2.55
2019-03-06T21:36:03.902Z,2.67
2019-03-06T21:41:01.274Z,2.65
2019-03-06T21:43:29.401Z,2.30
2019-03-06T21:45:56.446Z,2.80
2019-03-06T21:48:23.751Z,3.10
2019-03-06T21:50:50.970Z,2.45
2019-03-06T21:53:18.345Z,2.83
2019-03-06T21:55:45.368Z,2.80
2019-03-06T21:58:12.400Z,2.40
2019-03-06T22:00:39.457Z,2.70
2019-03-06T22:03:06.830Z,2.30
2019-03-06T22:05:33.884Z,2.87
2019-03-06T22:08:00.921Z,1.92
2019-03-06T22:10:27.991Z,2.47
2019-03-06T22:12:55.024Z,2.60
2019-03-06T22:15:22.079Z,2.60
2019-03-06T22:17:49.121Z,2.08
2019-03-06T22:20:16.202Z,2.77
2019-03-06T22:22:43.213Z,2.50
2019-03-06T22:25:10.273Z,2.60
2019-03-06T22:27:37.616Z,2.35
2019-03-06T22:30:04.671Z,2.35
2019-03-06T22:32:31.705Z,2.35
2019-03-06T22:34:58.760Z,2.08
2019-03-06T22:37:27.139Z,2.62
2019-03-06T22:39:55.462Z,2.22
2019-03-06T22:42:22.713Z,2.25
2019-03-06T22:44:50.041Z,2.00
2019-03-06T22:47:17.072Z,2.10
2019-03-06T22:49:44.238Z,2.10
2019-03-06T22:52:11.276Z,2.25
2019-03-06T22:54:38.340Z,2.15
2019-03-06T22:57:05.364Z,2.20
2019-03-06T22:59:32.422Z,2.10
2019-03-06T23:01:59.640Z,2.20
2019-03-06T23:04:26.691Z,1.90
2019-03-06T23:06:53.725Z,2.10
2019-03-06T23:09:20.757Z,2.25
2019-03-06T23:11:47.806Z,2.12
2019-03-06T23:14:14.847Z,2.25
2019-03-06T23:16:41.901Z,2.37
2019-03-06T23:19:09.331Z,2.10
2019-03-06T23:21:36.388Z,1.90
2019-03-06T23:24:03.724Z,1.98
2019-03-06T23:26:30.773Z,1.90
2019-03-06T23:28:58.133Z,1.92
2019-03-06T23:31:25.202Z,2.10
2019-03-06T23:33:52.311Z,2.45
2019-03-06T23:36:19.671Z,2.02
2019-03-06T23:38:46.707Z,1.90
2019-03-06T23:41:14.066Z,1.90
2019-03-06T23:43:41.105Z,1.70
2019-03-06T23:46:08.149Z,2.00
2019-03-06T23:48:35.519Z,2.00
2019-03-06T23:51:02.752Z,2.02
2019-03-06T23:53:29.826Z,1.77
2019-03-06T23:55:56.847Z,1.67
2019-03-06T23:58:23.877Z,1.92
